sensor_id;sensor_type;location;lat;lon;timestamp;pressure;altitude;pressure_sealevel;temperature;humidity
4123;BME280;2075;51.062;6.920;2023-01-30T00:00:37;-53.69;;;-144.48;100.00
4123;BME280;2075;51.062;6.920;2023-01-30T00:03:23;-559.44;;;-144.48;100.00
4123;BME280;2075;51.062;6.920;2023-01-30T00:06:10;-306.56;;;-144.48;100.00
4123;BME280;2075;51.062;6.920;2023-01-30T00:08:55;199.19;;;-144.48;100.00
4123;BME280;2075;51.062;6.920;2023-01-30T00:11:41;-306.56;;;-144.48;100.00
4123;BME280;2075;51.062;6.920;2023-01-30T00:14:29;-559.44;;;-144.48;100.00
4123;BME280;2075;51.062;6.920;2023-01-30T00:17:17;-812.25;;;-144.48;100.00
4123;BME280;2075;51.062;6.920;2023-01-30T00:20:03;-2076.13;;;-144.48;100.00
4123;BME280;2075;51.062;6.920;2023-01-30T00:22:49;-2328.84;;;-144.48;100.00
4123;BME280;2075;51.062;6.920;2023-01-30T00:25:35;-3086.84;;;-144.48;100.00
4123;BME280;2075;51.062;6.920;2023-01-30T00:28:20;-3086.84;;;-144.48;100.00
4123;BME280;2075;51.062;6.920;2023-01-30T00:31:06;-2834.19;;;-144.48;100.00
4123;BME280;2075;51.062;6.920;2023-01-30T00:33:51;-2834.19;;;-144.48;100.00
4123;BME280;2075;51.062;6.920;2023-01-30T00:36:39;-2834.19;;;-144.48;100.00
4123;BME280;2075;51.062;6.920;2023-01-30T00:39:26;-2328.84;;;-144.48;100.00
4123;BME280;2075;51.062;6.920;2023-01-30T00:42:14;-2076.13;;;-144.48;100.00
4123;BME280;2075;51.062;6.920;2023-01-30T00:45:16;-3339.50;;;-144.48;100.00
4123;BME280;2075;51.062;6.920;2023-01-30T00:48:19;-3339.50;;;-144.48;100.00
4123;BME280;2075;51.062;6.920;2023-01-30T00:51:05;-3592.09;;;-144.48;100.00
4123;BME280;2075;51.062;6.920;2023-01-30T00:53:50;-3339.50;;;-144.48;100.00
4123;BME280;2075;51.062;6.920;2023-01-30T00:56:37;-3086.84;;;-144.48;100.00
4123;BME280;2075;51.062;6.920;2023-01-30T00:59:24;-3086.84;;;-144.48;100.00
4123;BME280;2075;51.062;6.920;2023-01-30T01:02:09;-3339.50;;;-144.48;100.00
4123;BME280;2075;51.062;6.920;2023-01-30T01:04:54;-4097.28;;;-144.48;100.00
4123;BME280;2075;51.062;6.920;2023-01-30T01:07:40;-4097.28;;;-144.48;100.00
4123;BME280;2075;51.062;6.920;2023-01-30T01:10:25;-3592.09;;;-144.48;100.00
4123;BME280;2075;51.062;6.920;2023-01-30T01:13:12;-3086.84;;;-144.48;100.00
4123;BME280;2075;51.062;6.920;2023-01-30T01:15:57;-3339.50;;;-144.48;100.00
4123;BME280;2075;51.062;6.920;2023-01-30T01:18:43;-3592.09;;;-144.48;100.00
4123;BME280;2075;51.062;6.920;2023-01-30T01:21:28;-3592.09;;;-144.48;100.00
4123;BME280;2075;51.062;6.920;2023-01-30T01:24:14;-3844.69;;;-144.48;100.00
4123;BME280;2075;51.062;6.920;2023-01-30T01:27:00;-3844.69;;;-144.48;100.00
4123;BME280;2075;51.062;6.920;2023-01-30T01:29:47;-3592.09;;;-144.48;100.00
4123;BME280;2075;51.062;6.920;2023-01-30T01:32:33;-3339.50;;;-144.48;100.00
4123;BME280;2075;51.062;6.920;2023-01-30T01:35:19;-3339.50;;;-144.48;100.00
4123;BME280;2075;51.062;6.920;2023-01-30T01:38:04;-3339.50;;;-144.48;100.00
4123;BME280;2075;51.062;6.920;2023-01-30T01:40:50;-4097.28;;;-144.48;100.00
4123;BME280;2075;51.062;6.920;2023-01-30T01:44:01;-4349.84;;;-144.48;100.00
4123;BME280;2075;51.062;6.920;2023-01-30T01:46:50;-4602.38;;;-144.48;100.00
4123;BME280;2075;51.062;6.920;2023-01-30T01:49:37;-4349.84;;;-144.48;100.00
4123;BME280;2075;51.062;6.920;2023-01-30T01:52:23;-4097.28;;;-144.48;100.00
4123;BME280;2075;51.062;6.920;2023-01-30T01:55:10;-3592.09;;;-144.48;100.00
4123;BME280;2075;51.062;6.920;2023-01-30T01:57:59;-4097.28;;;-144.48;100.00
4123;BME280;2075;51.062;6.920;2023-01-30T02:00:46;-3339.50;;;-144.48;100.00
4123;BME280;2075;51.062;6.920;2023-01-30T02:03:38;-3339.50;;;-144.48;100.00
4123;BME280;2075;51.062;6.920;2023-01-30T02:06:24;-3086.84;;;-144.48;100.00
4123;BME280;2075;51.062;6.920;2023-01-30T02:09:10;-2328.84;;;-144.48;100.00
4123;BME280;2075;51.062;6.920;2023-01-30T02:11:58;-2581.53;;;-144.48;100.00
4123;BME280;2075;51.062;6.920;2023-01-30T02:14:47;-2581.53;;;-144.48;100.00
4123;BME280;2075;51.062;6.920;2023-01-30T02:17:33;-2328.84;;;-144.48;100.00
4123;BME280;2075;51.062;6.920;2023-01-30T02:20:28;-1317.84;;;-144.48;100.00
4123;BME280;2075;51.062;6.920;2023-01-30T02:23:58;-2076.13;;;-144.48;100.00
4123;BME280;2075;51.062;6.920;2023-01-30T02:27:16;-2834.19;;;-144.48;100.00
4123;BME280;2075;51.062;6.920;2023-01-30T02:30:33;-3086.84;;;-144.48;100.00
4123;BME280;2075;51.062;6.920;2023-01-30T02:33:24;-4602.38;;;-144.48;100.00
4123;BME280;2075;51.062;6.920;2023-01-30T02:36:21;-6117.19;;;-144.48;100.00
4123;BME280;2075;51.062;6.920;2023-01-30T02:39:17;-6621.97;;;-144.48;100.00
4123;BME280;2075;51.062;6.920;2023-01-30T02:42:12;-7126.69;;;-144.48;100.00
4123;BME280;2075;51.062;6.920;2023-01-30T02:45:07;-7379.00;;;-144.48;100.00
4123;BME280;2075;51.062;6.920;2023-01-30T02:47:57;-7126.69;;;-144.48;100.00
4123;BME280;2075;51.062;6.920;2023-01-30T02:50:51;-7379.00;;;-144.48;100.00
4123;BME280;2075;51.062;6.920;2023-01-30T02:53:38;-6874.34;;;-144.48;100.00
4123;BME280;2075;51.062;6.920;2023-01-30T02:56:24;-6874.34;;;-144.48;100.00
4123;BME280;2075;51.062;6.920;2023-01-30T02:59:11;-6874.34;;;-144.48;100.00
4123;BME280;2075;51.062;6.920;2023-01-30T03:02:26;-7126.69;;;-144.48;100.00
4123;BME280;2075;51.062;6.920;2023-01-30T03:05:29;-6874.34;;;-144.48;100.00
4123;BME280;2075;51.062;6.920;2023-01-30T03:08:24;-7126.69;;;-144.48;100.00
4123;BME280;2075;51.062;6.920;2023-01-30T03:11:15;-7126.69;;;-144.48;100.00
4123;BME280;2075;51.062;6.920;2023-01-30T03:14:06;-7379.00;;;-144.48;100.00
4123;BME280;2075;51.062;6.920;2023-01-30T03:16:56;-7379.00;;;-144.48;100.00
4123;BME280;2075;51.062;6.920;2023-01-30T03:19:42;-7379.00;;;-144.48;100.00
4123;BME280;2075;51.062;6.920;2023-01-30T03:22:29;-7379.00;;;-144.48;100.00
4123;BME280;2075;51.062;6.920;2023-01-30T03:25:18;-7126.69;;;-144.48;100.00
4123;BME280;2075;51.062;6.920;2023-01-30T03:28:05;-7126.69;;;-144.48;100.00
4123;BME280;2075;51.062;6.920;2023-01-30T03:30:52;-7379.00;;;-144.48;100.00
4123;BME280;2075;51.062;6.920;2023-01-30T03:33:37;-7126.69;;;-144.48;100.00
4123;BME280;2075;51.062;6.920;2023-01-30T03:36:24;-7379.00;;;-144.48;100.00
4123;BME280;2075;51.062;6.920;2023-01-30T03:39:12;-6874.34;;;-144.48;100.00
4123;BME280;2075;51.062;6.920;2023-01-30T03:41:57;-6621.97;;;-144.48;100.00
4123;BME280;2075;51.062;6.920;2023-01-30T03:44:45;-5612.34;;;-144.48;100.00
4123;BME280;2075;51.062;6.920;2023-01-30T03:47:31;-4854.91;;;-144.48;100.00
4123;BME280;2075;51.062;6.920;2023-01-30T03:50:17;-4854.91;;;-144.48;100.00
4123;BME280;2075;51.062;6.920;2023-01-30T03:53:03;-5107.41;;;-144.48;100.00
4123;BME280;2075;51.062;6.920;2023-01-30T03:55:50;-4854.91;;;-144.48;100.00
4123;BME280;2075;51.062;6.920;2023-01-30T03:58:41;-5359.88;;;-144.48;100.00
4123;BME280;2075;51.062;6.920;2023-01-30T04:01:34;-5864.78;;;-144.48;100.00
4123;BME280;2075;51.062;6.920;2023-01-30T04:04:20;-5864.78;;;-144.48;100.00
4123;BME280;2075;51.062;6.920;2023-01-30T04:07:06;-6621.97;;;-144.48;100.00
4123;BME280;2075;51.062;6.920;2023-01-30T04:09:53;-7883.59;;;-144.48;100.00
4123;BME280;2075;51.062;6.920;2023-01-30T04:12:40;-8892.53;;;-144.48;100.00
4123;BME280;2075;51.062;6.920;2023-01-30T04:15:26;-9396.91;;;-144.48;100.00
4123;BME280;2075;51.062;6.920;2023-01-30T04:18:30;-9649.03;;;-144.48;100.00
4123;BME280;2075;51.062;6.920;2023-01-30T04:21:21;-9901.19;;;-144.48;100.00
4123;BME280;2075;51.062;6.920;2023-01-30T04:24:07;-9901.19;;;-144.48;100.00
4123;BME280;2075;51.062;6.920;2023-01-30T04:26:53;-9901.19;;;-144.48;100.00
4123;BME280;2075;51.062;6.920;2023-01-30T04:29:40;-9901.19;;;-144.48;100.00
4123;BME280;2075;51.062;6.920;2023-01-30T04:32:27;-9901.19;;;-144.48;100.00
4123;BME280;2075;51.062;6.920;2023-01-30T04:35:14;-9649.03;;;-144.48;100.00
4123;BME280;2075;51.062;6.920;2023-01-30T04:37:59;-9901.19;;;-144.48;100.00
4123;BME280;2075;51.062;6.920;2023-01-30T04:40:47;-9901.19;;;-144.48;100.00
4123;BME280;2075;51.062;6.920;2023-01-30T04:43:33;-10405.38;;;-144.48;100.00
4123;BME280;2075;51.062;6.920;2023-01-30T04:46:40;-10909.50;;;-144.48;100.00
4123;BME280;2075;51.062;6.920;2023-01-30T04:49:26;-11413.53;;;-144.48;100.00
4123;BME280;2075;51.062;6.920;2023-01-30T04:52:11;-11665.53;;;-144.48;100.00
4123;BME280;2075;51.062;6.920;2023-01-30T04:54:57;-11665.53;;;-144.48;100.00
4123;BME280;2075;51.062;6.920;2023-01-30T04:57:42;-11667.00;;;-144.48;100.00
4123;BME280;2075;51.062;6.920;2023-01-30T05:00:27;-11667.00;;;-144.48;100.00
4123;BME280;2075;51.062;6.920;2023-01-30T05:03:19;-11667.00;;;-144.48;100.00
4123;BME280;2075;51.062;6.920;2023-01-30T05:06:07;-11667.00;;;-144.48;100.00
4123;BME280;2075;51.062;6.920;2023-01-30T05:08:55;-11667.00;;;-144.48;100.00
4123;BME280;2075;51.062;6.920;2023-01-30T05:11:41;-11667.00;;;-144.48;100.00
4123;BME280;2075;51.062;6.920;2023-01-30T05:14:26;-11667.00;;;-144.48;100.00
4123;BME280;2075;51.062;6.920;2023-01-30T05:17:12;-11667.00;;;-144.48;100.00
4123;BME280;2075;51.062;6.920;2023-01-30T05:19:58;-11667.00;;;-144.48;100.00
4123;BME280;2075;51.062;6.920;2023-01-30T05:22:44;-11667.00;;;-144.48;100.00
4123;BME280;2075;51.062;6.920;2023-01-30T05:25:29;-11667.00;;;-144.48;100.00
4123;BME280;2075;51.062;6.920;2023-01-30T05:28:15;-11667.00;;;-144.48;100.00
4123;BME280;2075;51.062;6.920;2023-01-30T05:31:00;-11667.00;;;-144.48;100.00
4123;BME280;2075;51.062;6.920;2023-01-30T05:33:47;-11667.00;;;-144.48;100.00
4123;BME280;2075;51.062;6.920;2023-01-30T05:36:36;-11667.00;;;-144.48;100.00
4123;BME280;2075;51.062;6.920;2023-01-30T05:39:21;-11667.00;;;-144.48;100.00
4123;BME280;2075;51.062;6.920;2023-01-30T05:42:07;-11667.00;;;-144.48;100.00
4123;BME280;2075;51.062;6.920;2023-01-30T05:44:52;-11667.00;;;-144.48;100.00
4123;BME280;2075;51.062;6.920;2023-01-30T05:47:38;-11667.00;;;-144.48;100.00
4123;BME280;2075;51.062;6.920;2023-01-30T05:50:23;-11667.00;;;-144.48;100.00
4123;BME280;2075;51.062;6.920;2023-01-30T05:53:12;-11667.00;;;-144.48;100.00
4123;BME280;2075;51.062;6.920;2023-01-30T05:56:00;-11667.00;;;-144.48;100.00
4123;BME280;2075;51.062;6.920;2023-01-30T05:58:49;-11667.00;;;-144.48;100.00
4123;BME280;2075;51.062;6.920;2023-01-30T06:01:36;-11667.00;;;-144.48;100.00
4123;BME280;2075;51.062;6.920;2023-01-30T06:04:24;-11667.00;;;-144.48;100.00
4123;BME280;2075;51.062;6.920;2023-01-30T06:07:13;-11667.00;;;-144.48;100.00
4123;BME280;2075;51.062;6.920;2023-01-30T06:10:00;-11667.00;;;-144.48;100.00
4123;BME280;2075;51.062;6.920;2023-01-30T06:12:45;-11667.00;;;-144.48;100.00
4123;BME280;2075;51.062;6.920;2023-01-30T06:15:31;-11667.00;;;-144.48;100.00
4123;BME280;2075;51.062;6.920;2023-01-30T06:18:16;-11667.00;;;-144.48;100.00
4123;BME280;2075;51.062;6.920;2023-01-30T06:21:02;-11667.00;;;-144.48;100.00
4123;BME280;2075;51.062;6.920;2023-01-30T06:23:49;-11667.00;;;-144.48;100.00
4123;BME280;2075;51.062;6.920;2023-01-30T06:26:36;-11667.00;;;-144.48;100.00
4123;BME280;2075;51.062;6.920;2023-01-30T06:29:22;-11667.00;;;-144.48;100.00
4123;BME280;2075;51.062;6.920;2023-01-30T06:32:08;-11667.00;;;-144.48;100.00
4123;BME280;2075;51.062;6.920;2023-01-30T06:34:53;-11667.00;;;-144.48;100.00
4123;BME280;2075;51.062;6.920;2023-01-30T06:37:39;-11667.00;;;-144.48;100.00
4123;BME280;2075;51.062;6.920;2023-01-30T06:40:25;-11667.00;;;-144.48;100.00
4123;BME280;2075;51.062;6.920;2023-01-30T06:43:12;-11667.00;;;-144.48;100.00
4123;BME280;2075;51.062;6.920;2023-01-30T06:45:58;-11667.00;;;-144.48;100.00
4123;BME280;2075;51.062;6.920;2023-01-30T06:48:44;-11667.00;;;-144.48;100.00
4123;BME280;2075;51.062;6.920;2023-01-30T06:51:32;-11667.00;;;-144.48;100.00
4123;BME280;2075;51.062;6.920;2023-01-30T06:54:17;-11667.00;;;-144.48;100.00
4123;BME280;2075;51.062;6.920;2023-01-30T06:57:03;-11667.00;;;-144.48;100.00
4123;BME280;2075;51.062;6.920;2023-01-30T06:59:50;-11667.00;;;-144.48;100.00
4123;BME280;2075;51.062;6.920;2023-01-30T07:02:36;-11667.00;;;-144.48;100.00
4123;BME280;2075;51.062;6.920;2023-01-30T07:05:21;-11667.00;;;-144.48;100.00
4123;BME280;2075;51.062;6.920;2023-01-30T07:08:10;-11667.00;;;-144.48;100.00
4123;BME280;2075;51.062;6.920;2023-01-30T07:10:56;-11667.00;;;-144.48;100.00
4123;BME280;2075;51.062;6.920;2023-01-30T07:13:42;-11667.00;;;-144.48;100.00
4123;BME280;2075;51.062;6.920;2023-01-30T07:16:30;-11667.00;;;-144.48;100.00
4123;BME280;2075;51.062;6.920;2023-01-30T07:19:15;-11667.00;;;-144.48;100.00
4123;BME280;2075;51.062;6.920;2023-01-30T07:22:02;-11667.00;;;-144.48;100.00
4123;BME280;2075;51.062;6.920;2023-01-30T07:24:47;-11667.00;;;-144.48;100.00
4123;BME280;2075;51.062;6.920;2023-01-30T07:27:38;-11667.00;;;-144.48;100.00
4123;BME280;2075;51.062;6.920;2023-01-30T07:30:24;-11667.00;;;-144.48;100.00
4123;BME280;2075;51.062;6.920;2023-01-30T07:33:11;-11667.00;;;-144.48;100.00
4123;BME280;2075;51.062;6.920;2023-01-30T07:35:57;-11667.00;;;-144.48;100.00
4123;BME280;2075;51.062;6.920;2023-01-30T07:38:42;-11667.00;;;-144.48;100.00
4123;BME280;2075;51.062;6.920;2023-01-30T07:41:28;-11667.00;;;-144.48;100.00
4123;BME280;2075;51.062;6.920;2023-01-30T07:44:14;-11667.00;;;-144.48;100.00
4123;BME280;2075;51.062;6.920;2023-01-30T07:47:00;-11667.00;;;-144.48;100.00
4123;BME280;2075;51.062;6.920;2023-01-30T07:49:47;-11667.00;;;-144.48;100.00
4123;BME280;2075;51.062;6.920;2023-01-30T07:52:33;-11667.00;;;-144.48;100.00
4123;BME280;2075;51.062;6.920;2023-01-30T07:55:19;-11667.00;;;-144.48;100.00
4123;BME280;2075;51.062;6.920;2023-01-30T07:58:04;-11667.00;;;-144.48;100.00
4123;BME280;2075;51.062;6.920;2023-01-30T08:00:54;-11667.00;;;-144.48;100.00
4123;BME280;2075;51.062;6.920;2023-01-30T08:03:39;-11667.00;;;-144.48;100.00
4123;BME280;2075;51.062;6.920;2023-01-30T08:06:29;-11667.00;;;-144.48;100.00
4123;BME280;2075;51.062;6.920;2023-01-30T08:09:14;-11667.00;;;-144.48;100.00
4123;BME280;2075;51.062;6.920;2023-01-30T08:12:00;-11667.00;;;-144.48;100.00
4123;BME280;2075;51.062;6.920;2023-01-30T08:14:46;-11667.00;;;-144.48;100.00
4123;BME280;2075;51.062;6.920;2023-01-30T08:17:31;-11667.00;;;-144.48;100.00
4123;BME280;2075;51.062;6.920;2023-01-30T08:20:19;-11667.00;;;-144.48;100.00
4123;BME280;2075;51.062;6.920;2023-01-30T08:23:07;-11667.00;;;-144.48;100.00
4123;BME280;2075;51.062;6.920;2023-01-30T08:25:57;-11667.00;;;-144.48;100.00
4123;BME280;2075;51.062;6.920;2023-01-30T08:28:43;-11667.00;;;-144.48;100.00
4123;BME280;2075;51.062;6.920;2023-01-30T08:31:28;-11667.00;;;-144.48;100.00
4123;BME280;2075;51.062;6.920;2023-01-30T08:34:14;-11667.00;;;-144.48;100.00
4123;BME280;2075;51.062;6.920;2023-01-30T08:36:59;-11667.00;;;-144.48;100.00
4123;BME280;2075;51.062;6.920;2023-01-30T08:39:48;-11667.00;;;-144.48;100.00
4123;BME280;2075;51.062;6.920;2023-01-30T08:42:34;-11667.00;;;-144.48;100.00
4123;BME280;2075;51.062;6.920;2023-01-30T08:45:19;-11667.00;;;-144.48;100.00
4123;BME280;2075;51.062;6.920;2023-01-30T08:48:05;-11667.00;;;-144.48;100.00
4123;BME280;2075;51.062;6.920;2023-01-30T08:50:51;-11665.53;;;-144.48;100.00
4123;BME280;2075;51.062;6.920;2023-01-30T08:53:43;-9649.03;;;-144.48;100.00
4123;BME280;2075;51.062;6.920;2023-01-30T08:56:30;-6874.34;;;-144.48;100.00
4123;BME280;2075;51.062;6.920;2023-01-30T08:59:16;-5107.41;;;-144.48;100.00
4123;BME280;2075;51.062;6.920;2023-01-30T09:02:02;-1570.63;;;-144.48;100.00
4123;BME280;2075;51.062;6.920;2023-01-30T09:04:47;-2581.53;;;-144.48;100.00
4123;BME280;2075;51.062;6.920;2023-01-30T09:07:35;-3592.09;;;-144.48;100.00
4123;BME280;2075;51.062;6.920;2023-01-30T09:10:22;-2581.53;;;-144.48;100.00
4123;BME280;2075;51.062;6.920;2023-01-30T09:13:12;-1823.38;;;-144.48;100.00
4123;BME280;2075;51.062;6.920;2023-01-30T09:15:58;2223.00;;;-144.48;100.00
4123;BME280;2075;51.062;6.920;2023-01-30T09:18:44;4754.53;;;-144.48;100.00
4123;BME280;2075;51.062;6.920;2023-01-30T09:21:29;11091.88;;;-144.48;100.00
4123;BME280;2075;51.062;6.920;2023-01-30T09:24:16;14646.13;;;-144.48;100.00
4123;BME280;2075;51.062;6.920;2023-01-30T09:27:01;19475.84;;;-144.48;100.00
4123;BME280;2075;51.062;6.920;2023-01-30T09:29:49;30687.50;;;-144.48;100.00
4123;BME280;2075;51.062;6.920;2023-01-30T09:32:34;33496.31;;;-144.48;100.00
4123;BME280;2075;51.062;6.920;2023-01-30T09:35:20;32730.03;;;-144.48;100.00
4123;BME280;2075;51.062;6.920;2023-01-30T09:38:06;36818.88;;;-144.48;100.00
4123;BME280;2075;51.062;6.920;2023-01-30T09:41:06;34262.75;;;-144.48;100.00
4123;BME280;2075;51.062;6.920;2023-01-30T09:44:15;41424.75;;;-144.48;100.00
4123;BME280;2075;51.062;6.920;2023-01-30T09:47:10;47575.78;;;-144.48;100.00
4123;BME280;2075;51.062;6.920;2023-01-30T09:50:03;43217.66;;;-144.48;100.00
4123;BME280;2075;51.062;6.920;2023-01-30T09:52:58;46293.41;;;-144.48;100.00
4123;BME280;2075;51.062;6.920;2023-01-30T09:55:45;48858.66;;;-144.48;100.00
4123;BME280;2075;51.062;6.920;2023-01-30T09:58:43;51939.56;;;-144.48;100.00
4123;BME280;2075;51.062;6.920;2023-01-30T10:01:39;60684.00;;;-144.48;100.00
4123;BME280;2075;51.062;6.920;2023-01-30T10:04:33;61971.84;;;-144.48;100.00
4123;BME280;2075;51.062;6.920;2023-01-30T10:07:26;72998.84;;;-144.48;100.00
4123;BME280;2075;51.062;6.920;2023-01-30T10:10:22;71436.38;;;-144.48;100.00
4123;BME280;2075;51.062;6.920;2023-01-30T10:13:25;82730.84;;;-144.48;100.00
4123;BME280;2075;51.062;6.920;2023-01-30T10:16:15;88283.50;;;-144.48;100.00
4123;BME280;2075;51.062;6.920;2023-01-30T10:19:21;91883.31;;;-144.48;100.00
4123;BME280;2075;51.062;6.920;2023-01-30T10:22:21;92508.69;;;-144.48;100.00
4123;BME280;2075;51.062;6.920;2023-01-30T10:25:22;93883.72;;;-144.48;94.22
4123;BME280;2075;51.062;6.920;2023-01-30T10:28:16;93733.38;;;-144.48;94.68
4123;BME280;2075;51.062;6.920;2023-01-30T10:31:05;93351.50;;;-144.48;95.60
4123;BME280;2075;51.062;6.920;2023-01-30T10:33:55;93570.88;;;-144.48;95.02
4123;BME280;2075;51.062;6.920;2023-01-30T10:36:47;93180.91;;;-144.48;95.92
4123;BME280;2075;51.062;6.920;2023-01-30T10:39:45;93302.75;;;-144.48;95.56
4123;BME280;2075;51.062;6.920;2023-01-30T10:42:38;93079.34;;;-144.48;95.91
4123;BME280;2075;51.062;6.920;2023-01-30T10:45:31;93128.09;;;-144.48;95.81
4123;BME280;2075;51.062;6.920;2023-01-30T10:48:31;93473.38;;;-144.48;95.81
4123;BME280;2075;51.062;6.920;2023-01-30T10:51:28;93648.06;;;-144.48;95.25
4123;BME280;2075;51.062;6.920;2023-01-30T10:54:23;93625.72;;;-144.48;95.58
4123;BME280;2075;51.062;6.920;2023-01-30T10:57:17;93351.50;;;-144.48;95.88
4123;BME280;2075;51.062;6.920;2023-01-30T11:00:14;94029.97;;;-144.48;93.65
4123;BME280;2075;51.062;6.920;2023-01-30T11:03:09;94257.50;;;-144.48;93.02
4123;BME280;2075;51.062;6.920;2023-01-30T11:06:02;94296.13;;;-144.48;92.55
4123;BME280;2075;51.062;6.920;2023-01-30T11:08:51;94225.00;;;-144.48;93.57
4123;BME280;2075;51.062;6.920;2023-01-30T11:11:45;94237.19;;;-144.48;93.24
4123;BME280;2075;51.062;6.920;2023-01-30T11:14:51;94251.41;;;-144.48;93.09
4123;BME280;2075;51.062;6.920;2023-01-30T11:17:38;94265.63;;;-144.48;93.43
4123;BME280;2075;51.062;6.920;2023-01-30T11:20:25;94407.84;;;-144.48;92.26
4123;BME280;2075;51.062;6.920;2023-01-30T11:23:24;94389.56;;;-144.48;92.71
4123;BME280;2075;51.062;6.920;2023-01-30T11:26:18;94204.69;;;-144.48;92.99
4123;BME280;2075;51.062;6.920;2023-01-30T11:29:26;94617.13;;;-144.48;93.64
4123;BME280;2075;51.062;6.920;2023-01-30T11:32:26;94257.50;;;-144.48;92.89
4123;BME280;2075;51.062;6.920;2023-01-30T11:35:26;94135.63;;;-144.48;92.72
4123;BME280;2075;51.062;6.920;2023-01-30T11:38:20;94391.59;;;-144.48;90.70
4123;BME280;2075;51.062;6.920;2023-01-30T11:41:20;94442.41;;;-144.48;90.87
4123;BME280;2075;51.062;6.920;2023-01-30T11:44:08;94552.13;;;-144.48;88.39
4123;BME280;2075;51.062;6.920;2023-01-30T11:46:57;94588.69;;;-144.48;88.57
4123;BME280;2075;51.062;6.920;2023-01-30T11:49:48;94554.16;;;-144.48;87.47
4123;BME280;2075;51.062;6.920;2023-01-30T11:52:36;94623.22;;;-144.48;86.53
4123;BME280;2075;51.062;6.920;2023-01-30T11:55:22;94672.00;;;-144.48;86.34
4123;BME280;2075;51.062;6.920;2023-01-30T11:58:08;94659.81;;;-144.48;86.92
4123;BME280;2075;51.062;6.920;2023-01-30T12:00:54;94615.09;;;-144.48;87.01
4123;BME280;2075;51.062;6.920;2023-01-30T12:03:46;94651.66;;;-144.48;87.10
4123;BME280;2075;51.062;6.920;2023-01-30T12:06:41;94696.38;;;-144.48;87.79
4123;BME280;2075;51.062;6.920;2023-01-30T12:09:35;94623.22;;;-144.48;89.30
4123;BME280;2075;51.062;6.920;2023-01-30T12:12:32;94615.09;;;-144.48;89.13
4123;BME280;2075;51.062;6.920;2023-01-30T12:15:22;94606.97;;;-144.48;89.43
4123;BME280;2075;51.062;6.920;2023-01-30T12:18:13;94592.75;;;-144.48;88.95
4123;BME280;2075;51.062;6.920;2023-01-30T12:21:08;94659.81;;;-144.48;88.12
4123;BME280;2075;51.062;6.920;2023-01-30T12:24:07;94619.16;;;-144.48;88.02
4123;BME280;2075;51.062;6.920;2023-01-30T12:27:00;94371.28;;;-144.48;87.92
4123;BME280;2075;51.062;6.920;2023-01-30T12:29:55;94639.47;;;-144.48;87.46
4123;BME280;2075;51.062;6.920;2023-01-30T12:32:43;94672.00;;;-144.48;86.33
4123;BME280;2075;51.062;6.920;2023-01-30T12:35:40;94696.38;;;-144.48;86.11
4123;BME280;2075;51.062;6.920;2023-01-30T12:38:40;94769.53;;;-144.48;85.71
4123;BME280;2075;51.062;6.920;2023-01-30T12:41:46;94692.31;;;-144.48;85.68
4123;BME280;2075;51.062;6.920;2023-01-30T12:44:43;94726.84;;;-144.48;83.90
4123;BME280;2075;51.062;6.920;2023-01-30T12:47:56;94737.00;;;-144.48;82.71
4123;BME280;2075;51.062;6.920;2023-01-30T12:50:55;94720.75;;;-144.48;82.66
4123;BME280;2075;51.062;6.920;2023-01-30T12:53:54;94732.94;;;-144.48;80.96
4123;BME280;2075;51.062;6.920;2023-01-30T12:57:04;94773.59;;;-144.48;79.60
4123;BME280;2075;51.062;6.920;2023-01-30T13:00:02;94702.47;;;-144.48;78.66
4123;BME280;2075;51.062;6.920;2023-01-30T13:03:02;94751.25;;;-144.48;75.49
4123;BME280;2075;51.062;6.920;2023-01-30T13:05:58;94743.09;;;-144.48;74.82
4123;BME280;2075;51.062;6.920;2023-01-30T13:09:00;94720.75;;;-144.48;74.06
4123;BME280;2075;51.062;6.920;2023-01-30T13:11:55;94741.06;;;-144.48;71.40
4123;BME280;2075;51.062;6.920;2023-01-30T13:14:50;94730.91;;;-144.48;71.46
4123;BME280;2075;51.062;6.920;2023-01-30T13:17:59;95025.56;;;-144.48;72.09
4123;BME280;2075;51.062;6.920;2023-01-30T13:20:53;94771.56;;;-144.48;69.53
4123;BME280;2075;51.062;6.920;2023-01-30T13:23:50;94783.75;;;-144.48;70.56
4123;BME280;2075;51.062;6.920;2023-01-30T13:26:40;94737.00;;;-144.48;71.62
4123;BME280;2075;51.062;6.920;2023-01-30T13:29:29;94781.72;;;-144.48;71.07
4123;BME280;2075;51.062;6.920;2023-01-30T13:32:24;94694.34;;;-144.48;70.73
4123;BME280;2075;51.062;6.920;2023-01-30T13:35:16;94743.09;;;-144.48;69.77
4123;BME280;2075;51.062;6.920;2023-01-30T13:38:04;94785.78;;;-144.48;70.21
4123;BME280;2075;51.062;6.920;2023-01-30T13:40:57;94761.41;;;-144.48;70.08
4123;BME280;2075;51.062;6.920;2023-01-30T13:43:47;94757.34;;;-144.48;68.70
4123;BME280;2075;51.062;6.920;2023-01-30T13:46:36;94716.69;;;-144.48;69.40
4123;BME280;2075;51.062;6.920;2023-01-30T13:49:28;94769.53;;;-144.48;69.49
4123;BME280;2075;51.062;6.920;2023-01-30T13:52:22;94806.09;;;-144.48;69.71
4123;BME280;2075;51.062;6.920;2023-01-30T13:55:21;94749.22;;;-144.48;69.30
4123;BME280;2075;51.062;6.920;2023-01-30T13:58:16;94751.25;;;-144.48;68.96
4123;BME280;2075;51.062;6.920;2023-01-30T14:01:08;94759.38;;;-144.48;68.96
4123;BME280;2075;51.062;6.920;2023-01-30T14:03:54;94785.78;;;-144.48;69.94
4123;BME280;2075;51.062;6.920;2023-01-30T14:06:40;95135.28;;;-144.48;70.29
4123;BME280;2075;51.062;6.920;2023-01-30T14:09:28;94745.13;;;-144.48;70.81
4123;BME280;2075;51.062;6.920;2023-01-30T14:12:18;94759.38;;;-144.48;70.12
4123;BME280;2075;51.062;6.920;2023-01-30T14:15:21;94775.63;;;-144.48;70.17
4123;BME280;2075;51.062;6.920;2023-01-30T14:18:19;94775.63;;;-144.48;69.89
4123;BME280;2075;51.062;6.920;2023-01-30T14:21:13;94777.66;;;-144.48;69.84
4123;BME280;2075;51.062;6.920;2023-01-30T14:24:03;94814.22;;;-144.48;70.13
4123;BME280;2075;51.062;6.920;2023-01-30T14:26:59;94822.34;;;-144.48;70.92
4123;BME280;2075;51.062;6.920;2023-01-30T14:29:54;94793.91;;;-144.48;70.09
4123;BME280;2075;51.062;6.920;2023-01-30T14:32:54;94802.03;;;-144.48;69.87
4123;BME280;2075;51.062;6.920;2023-01-30T14:35:40;94818.28;;;-144.48;69.34
4123;BME280;2075;51.062;6.920;2023-01-30T14:38:26;94789.84;;;-144.48;70.17
4123;BME280;2075;51.062;6.920;2023-01-30T14:41:24;94802.03;;;-144.48;69.05
4123;BME280;2075;51.062;6.920;2023-01-30T14:44:10;94769.53;;;-144.48;68.93
4123;BME280;2075;51.062;6.920;2023-01-30T14:46:56;94680.13;;;-144.48;68.77
4123;BME280;2075;51.062;6.920;2023-01-30T14:49:44;94777.66;;;-144.48;69.30